createdAt,value
2019-02-17T05:00:15.961Z,79.70
2019-02-17T05:02:53.957Z,80.70
2019-02-17T05:05:28.720Z,80.30
2019-02-17T05:08:03.784Z,80.40
2019-02-17T05:10:38.960Z,80.20
2019-02-17T05:13:13.987Z,80.20
2019-02-17T06:00:17.908Z,80.40
2019-02-17T06:02:59.810Z,79.30
2019-02-17T06:05:34.650Z,79.40
2019-02-17T06:08:09.663Z,79.90
2019-02-17T06:10:44.862Z,79.30
2019-02-17T06:13:19.976Z,79.40
2019-02-17T07:01:58.972Z,82.50
2019-02-17T07:04:34.549Z,81.50
2019-02-17T07:07:01.865Z,81.10
2019-02-17T07:09:25.439Z,81.30
2019-02-17T07:11:48.362Z,81.30
2019-02-17T07:14:10.877Z,81.30
2019-02-17T08:02:32.143Z,78.80
2019-02-17T08:04:54.711Z,78.80
2019-02-17T08:07:29.766Z,77.40
2019-02-17T08:10:04.923Z,76.30
2019-02-17T08:12:39.954Z,74.90
2019-02-17T10:02:45.516Z,43.00
2019-02-17T10:05:08.101Z,39.10
2019-02-17T10:07:30.782Z,39.40
2019-02-17T10:09:53.450Z,38.20
2019-02-17T10:12:16.037Z,37.50
2019-02-17T10:14:38.644Z,39.40
2019-02-17T10:39:40.554Z,38.30
2019-02-17T10:42:15.142Z,38.20
2019-02-17T10:44:50.336Z,37.90
2019-02-17T10:47:25.199Z,37.90
2019-02-17T10:50:00.370Z,38.20
2019-02-17T10:52:35.422Z,37.60
2019-02-17T10:55:10.515Z,36.30
2019-02-17T10:57:45.491Z,36.90
2019-02-17T11:00:20.668Z,35.00
2019-02-17T11:02:55.750Z,34.10
2019-02-17T11:05:30.785Z,36.20
2019-02-17T11:08:05.907Z,33.20
2019-02-17T11:10:40.951Z,32.20
2019-02-17T11:13:16.207Z,32.80
2019-02-17T12:02:41.490Z,19.30
2019-02-17T12:05:04.235Z,19.60
2019-02-17T12:07:28.224Z,18.90
2019-02-17T12:09:50.870Z,18.50
2019-02-17T12:12:13.782Z,18.10
2019-02-17T12:14:36.818Z,17.80
2019-02-17T13:10:00.944Z,11.80
2019-02-17T13:12:23.643Z,11.20
2019-02-17T13:14:46.127Z,11.80
2019-02-17T13:22:37.187Z,10.40
2019-02-17T13:24:59.848Z,10.10
2019-02-17T13:27:22.428Z,10.20
2019-02-17T13:29:45.033Z,9.90
2019-02-17T13:32:07.607Z,9.20
2019-02-17T13:34:42.259Z,10.20
2019-02-17T13:37:17.565Z,9.30
2019-02-17T13:39:52.873Z,9.60
2019-02-17T13:42:27.889Z,8.70
2019-02-17T13:45:03.223Z,9.40
2019-02-17T13:47:38.409Z,9.00
2019-02-17T13:50:13.372Z,9.30
2019-02-17T13:52:48.531Z,9.10
2019-02-17T13:55:24.533Z,8.90
2019-02-17T13:57:59.699Z,8.50
2019-02-17T14:00:34.867Z,9.10
2019-02-17T14:03:13.271Z,8.40
2019-02-17T14:05:48.102Z,8.50
2019-02-17T14:08:23.406Z,8.30
2019-02-17T14:10:58.528Z,8.50
2019-02-17T14:13:33.691Z,8.90
2019-02-17T15:00:23.399Z,19.60
2019-02-17T15:02:45.938Z,20.90
2019-02-17T15:05:08.515Z,21.50
2019-02-17T15:07:30.979Z,22.30
2019-02-17T15:09:53.435Z,23.50
2019-02-17T15:12:15.892Z,22.60
2019-02-17T15:14:38.451Z,24.40
2019-02-17T16:02:41.334Z,29.60
2019-02-17T16:05:04.473Z,30.80
2019-02-17T17:02:23.861Z,39.20
2019-02-17T17:04:48.903Z,39.60
2019-02-17T17:07:10.973Z,40.10
2019-02-17T17:09:33.453Z,40.20
2019-02-17T17:12:08.619Z,40.80
2019-02-17T17:14:43.948Z,41.30
2019-02-17T18:01:31.310Z,47.20
2019-02-17T18:03:53.854Z,48.00
2019-02-17T18:06:16.396Z,48.60
2019-02-17T18:08:38.955Z,49.10
2019-02-17T18:11:01.375Z,49.20
2019-02-17T18:13:23.814Z,49.30
2019-02-17T19:00:43.683Z,54.10
2019-02-17T19:03:18.639Z,54.20
2019-02-17T19:05:53.911Z,54.80
2019-02-17T19:08:28.836Z,55.40
2019-02-17T19:11:03.937Z,55.50
2019-02-17T19:13:38.889Z,55.80
2019-02-17T20:05:27.344Z,59.10
2019-02-17T20:08:02.853Z,59.80
2019-02-17T20:10:38.236Z,59.10
2019-02-17T20:13:14.171Z,60.30
2019-02-17T21:02:40.422Z,64.50
2019-02-17T21:05:03.212Z,64.40
2019-02-17T21:07:25.871Z,64.20
2019-02-17T21:09:48.413Z,64.50
2019-02-17T21:12:23.770Z,64.00
2019-02-17T21:14:59.164Z,63.60
